createdAt,value
2023-08-01T00:00:18.583Z,99115.91
2023-08-01T00:03:21.501Z,99097.63
2023-08-01T00:06:23.561Z,99101.81
2023-08-01T00:09:25.501Z,99090.13
2023-08-01T00:12:28.478Z,99077.09
2023-08-01T00:15:30.274Z,99078.50
2023-08-01T00:18:33.247Z,99082.16
2023-08-01T00:21:35.037Z,99083.97
2023-08-01T00:24:37.301Z,99072.53
2023-08-01T00:27:40.390Z,99065.53
2023-08-01T00:30:42.473Z,99058.91
2023-08-01T00:33:44.340Z,99042.44
2023-08-01T00:36:46.384Z,99034.22
2023-08-01T00:39:48.159Z,99016.75
2023-08-01T00:42:50.052Z,99014.56
2023-08-01T00:45:53.177Z,99013.34
2023-08-01T00:48:59.044Z,99013.34
2023-08-01T00:52:01.078Z,99019.41
2023-08-01T00:55:03.162Z,99013.19
2023-08-01T00:58:04.973Z,99009.94
2023-08-01T01:01:06.980Z,99006.94
2023-08-01T01:04:09.955Z,99001.38
2023-08-01T01:07:13.420Z,98998.53
2023-08-01T01:10:15.236Z,98998.53
2023-08-01T01:13:17.035Z,99007.38
2023-08-01T01:16:18.970Z,98985.88
2023-08-01T01:19:20.712Z,99006.59
2023-08-01T01:22:23.306Z,99003.13
2023-08-01T01:25:26.430Z,99002.69
2023-08-01T01:28:29.149Z,98998.28
2023-08-01T01:31:32.921Z,98990.66
2023-08-01T01:34:34.720Z,98992.88
2023-08-01T01:37:38.759Z,98988.28
2023-08-01T01:40:40.458Z,98976.81
2023-08-01T01:43:42.317Z,98984.81
2023-08-01T01:46:44.711Z,98974.16
2023-08-01T01:49:46.558Z,98966.34
2023-08-01T01:52:48.380Z,98947.91
2023-08-01T01:55:50.053Z,98957.13
2023-08-01T01:58:52.973Z,98957.50
2023-08-01T02:01:54.841Z,98952.50
2023-08-01T02:04:56.932Z,98947.06
2023-08-01T02:07:58.789Z,98931.41
2023-08-01T02:11:00.733Z,98929.00
2023-08-01T02:14:04.032Z,98922.38
2023-08-01T02:17:06.400Z,98931.41
2023-08-01T02:20:08.573Z,98922.53
2023-08-01T02:23:10.618Z,98916.50
2023-08-01T02:26:12.451Z,98916.19
2023-08-01T02:29:14.111Z,98925.31
2023-08-01T02:32:15.730Z,98916.91
2023-08-01T02:35:17.404Z,98907.63
2023-08-01T02:38:20.781Z,98902.44
2023-08-01T02:41:22.562Z,98899.63
2023-08-01T02:44:24.510Z,98887.97
2023-08-01T02:47:26.294Z,98888.75
2023-08-01T02:50:28.833Z,98887.38
2023-08-01T02:53:30.728Z,98875.53
2023-08-01T02:56:32.489Z,98873.53
2023-08-01T02:59:34.421Z,98869.53
2023-08-01T03:02:36.601Z,98878.16
2023-08-01T03:05:44.115Z,98877.34
2023-08-01T03:08:45.928Z,98875.94
2023-08-01T03:11:48.868Z,98868.50
2023-08-01T03:14:50.774Z,98851.44
2023-08-01T03:17:52.537Z,98847.81
2023-08-01T03:20:54.365Z,98844.59
2023-08-01T03:23:56.029Z,98839.22
2023-08-01T03:26:57.835Z,98832.97
2023-08-01T03:29:59.524Z,98841.19
2023-08-01T03:33:04.033Z,98840.56
2023-08-01T03:36:05.665Z,98838.19
2023-08-01T03:39:07.383Z,98838.97
2023-08-01T03:42:09.112Z,98846.19
2023-08-01T03:45:11.410Z,98841.19
2023-08-01T03:48:13.294Z,98834.16
2023-08-01T03:51:16.492Z,98843.19
2023-08-01T03:54:18.383Z,98830.75
2023-08-01T03:57:20.202Z,98821.94
2023-08-01T04:00:21.874Z,98810.47
2023-08-01T04:03:23.688Z,98806.09
2023-08-01T04:06:25.550Z,98819.72
2023-08-01T04:09:27.290Z,98831.38
2023-08-01T04:12:29.467Z,98841.00
2023-08-01T04:15:31.624Z,98838.59
2023-08-01T04:18:33.604Z,98839.34
2023-08-01T04:21:35.358Z,98836.09
2023-08-01T04:24:37.174Z,98833.06
2023-08-01T04:27:38.773Z,98823.25
2023-08-01T04:30:40.418Z,98832.88
2023-08-01T04:33:42.336Z,98831.25
2023-08-01T04:36:44.093Z,98842.28
2023-08-01T04:39:46.116Z,98839.06
2023-08-01T04:42:47.890Z,98842.47
2023-08-01T04:45:49.766Z,98838.06
2023-08-01T04:48:51.556Z,98831.25
2023-08-01T04:51:53.941Z,98831.25
2023-08-01T04:54:55.786Z,98827.22
2023-08-01T04:57:57.744Z,98830.19
2023-08-01T05:00:59.506Z,98832.63
2023-08-01T05:04:01.585Z,98826.41
2023-08-01T05:07:03.380Z,98827.81
2023-08-01T05:10:05.605Z,98832.25
2023-08-01T05:13:07.415Z,98832.25
2023-08-01T05:16:09.320Z,98844.50
2023-08-01T05:19:11.195Z,98841.28
2023-08-01T05:22:13.004Z,98848.91
2023-08-01T05:25:14.950Z,98844.16
2023-08-01T05:28:16.967Z,98832.53
2023-08-01T05:31:19.071Z,98844.38
2023-08-01T05:34:20.943Z,98834.00
2023-08-01T05:37:22.914Z,98853.88
2023-08-01T05:40:25.062Z,98846.50
2023-08-01T05:43:26.932Z,98848.75
2023-08-01T05:46:28.771Z,98851.22
2023-08-01T05:49:33.272Z,98845.97
2023-08-01T05:52:35.917Z,98852.22
2023-08-01T05:55:38.058Z,98849.63
2023-08-01T05:58:40.054Z,98845.63
2023-08-01T06:01:42.165Z,98854.44
2023-08-01T06:04:44.130Z,98861.63
2023-08-01T06:07:45.935Z,98863.44
2023-08-01T06:10:47.928Z,98868.81
2023-08-01T06:13:49.852Z,98862.13
2023-08-01T06:16:51.737Z,98867.88
2023-08-01T06:19:55.817Z,98888.94
2023-08-01T06:22:57.824Z,98884.69
2023-08-01T06:25:59.651Z,98882.47
2023-08-01T06:29:01.430Z,98877.25
2023-08-01T06:32:03.307Z,98884.09
2023-08-01T06:35:05.570Z,98885.47
2023-08-01T06:38:07.380Z,98880.03
2023-08-01T06:41:09.101Z,98881.00
2023-08-01T06:44:10.844Z,98889.22
2023-08-01T06:47:12.724Z,98888.03
2023-08-01T06:50:14.506Z,98894.94
2023-08-01T06:53:16.473Z,98895.19
2023-08-01T06:56:18.586Z,98885.47
2023-08-01T06:59:20.594Z,98894.13
2023-08-01T07:02:22.619Z,98881.06
2023-08-01T07:05:27.211Z,98887.56
2023-08-01T07:08:29.170Z,98890.00
2023-08-01T07:11:31.013Z,98893.00
2023-08-01T07:14:33.890Z,98883.19
2023-08-01T07:17:36.120Z,98871.56
2023-08-01T07:20:39.252Z,98863.72
2023-08-01T07:23:42.086Z,98865.13
2023-08-01T07:26:44.029Z,98850.06
2023-08-01T07:29:45.995Z,98849.47
2023-08-01T07:32:48.996Z,98846.47
2023-08-01T07:35:50.982Z,98850.47
2023-08-01T07:38:54.113Z,98849.47
2023-08-01T07:41:57.467Z,98857.31
2023-08-01T07:44:59.522Z,98845.66
2023-08-01T07:48:02.011Z,98845.84
2023-08-01T07:51:06.298Z,98861.13
2023-08-01T07:54:08.272Z,98847.47
2023-08-01T07:57:10.425Z,98846.63
2023-08-01T08:00:13.246Z,98842.00
2023-08-01T08:03:23.829Z,98854.69
2023-08-01T08:06:27.093Z,98864.97
2023-08-01T08:09:35.141Z,98859.09
2023-08-01T08:12:38.812Z,98866.34
2023-08-01T08:15:42.496Z,98852.16
2023-08-01T08:18:44.782Z,98840.16
2023-08-01T08:21:51.880Z,98828.25
2023-08-01T08:24:54.786Z,98822.53
2023-08-01T08:27:57.372Z,98824.06
2023-08-01T08:31:01.564Z,98819.28
2023-08-01T08:34:04.654Z,98817.91
2023-08-01T08:37:07.040Z,98823.84
2023-08-01T08:40:14.351Z,98829.22
2023-08-01T08:43:19.910Z,98820.09
2023-08-01T08:46:27.249Z,98822.16
2023-08-01T08:49:32.526Z,98814.66
2023-08-01T08:52:35.519Z,98820.38
2023-08-01T08:55:38.581Z,98823.66
2023-08-01T08:58:41.401Z,98814.78
2023-08-01T09:01:44.702Z,98822.81
2023-08-01T09:04:48.557Z,98818.13
2023-08-01T09:07:52.862Z,98815.16
2023-08-01T09:10:54.965Z,98813.88
2023-08-01T09:13:58.452Z,98813.28
2023-08-01T09:17:13.042Z,98818.13
2023-08-01T09:20:15.579Z,98824.91
2023-08-01T09:23:18.995Z,98829.44
2023-08-01T09:26:21.502Z,98826.44
2023-08-01T09:29:23.656Z,98821.75
2023-08-01T09:32:27.291Z,98831.25
2023-08-01T09:35:29.452Z,98831.16
2023-08-01T09:38:37.609Z,98829.97
2023-08-01T09:41:40.157Z,98822.28
2023-08-01T09:44:48.013Z,98823.50
2023-08-01T09:47:56.161Z,98815.03
2023-08-01T09:51:13.568Z,98826.19
2023-08-01T09:54:19.337Z,98822.28
2023-08-01T09:57:29.205Z,98812.00
2023-08-01T10:00:31.514Z,98831.78
2023-08-01T10:03:34.045Z,98818.59
2023-08-01T10:06:43.881Z,98828.25
2023-08-01T10:09:48.816Z,98821.81
2023-08-01T10:12:52.227Z,98823.59
2023-08-01T10:15:57.271Z,98824.59
2023-08-01T10:19:00.999Z,98818.69
2023-08-01T10:25:35.834Z,98832.16
2023-08-01T10:28:42.687Z,98820.06
2023-08-01T10:32:01.031Z,98833.88
2023-08-01T10:35:07.818Z,98828.16
2023-08-01T10:38:13.665Z,98819.47
2023-08-01T10:41:43.630Z,98819.44
2023-08-01T10:44:46.916Z,98818.00
2023-08-01T10:47:55.142Z,98825.78
2023-08-01T10:50:58.368Z,98826.88
2023-08-01T10:54:01.351Z,98833.75
2023-08-01T10:57:06.819Z,98831.66
2023-08-01T11:00:11.443Z,98812.56
2023-08-01T11:03:14.108Z,98811.59
2023-08-01T11:06:18.167Z,98812.13
2023-08-01T11:09:24.965Z,98817.75
2023-08-01T11:12:28.222Z,98818.69
2023-08-01T11:15:32.693Z,98822.78
2023-08-01T11:18:45.692Z,98827.59
2023-08-01T11:21:48.422Z,98832.59
2023-08-01T11:24:53.188Z,98855.75
2023-08-01T11:27:55.036Z,98851.03
2023-08-01T11:30:57.299Z,98856.84
2023-08-01T11:33:59.496Z,98881.75
2023-08-01T11:37:02.138Z,98881.59
2023-08-01T11:40:04.781Z,98897.94
2023-08-01T11:43:06.898Z,98909.78
2023-08-01T11:46:29.329Z,98902.97
2023-08-01T11:49:36.413Z,98906.75
2023-08-01T11:52:42.064Z,98908.16
2023-08-01T11:55:46.051Z,98921.63
2023-08-01T11:58:48.199Z,98910.72
2023-08-01T12:01:51.523Z,98917.03
2023-08-01T12:04:55.331Z,98906.88
2023-08-01T12:07:57.511Z,98911.50
2023-08-01T12:10:59.640Z,98897.00
2023-08-01T12:14:02.486Z,98891.63
2023-08-01T12:17:04.701Z,98889.41
2023-08-01T12:20:08.166Z,98885.47
2023-08-01T12:23:13.290Z,98888.28
2023-08-01T12:26:15.641Z,98901.91
2023-08-01T12:29:18.958Z,98900.75
2023-08-01T12:32:26.455Z,98907.69
2023-08-01T12:35:29.026Z,98894.44
2023-08-01T12:38:38.630Z,98903.59
2023-08-01T12:41:44.340Z,98912.81
2023-08-01T12:44:46.222Z,98919.56
2023-08-01T12:47:49.694Z,98915.03
2023-08-01T12:50:52.490Z,98918.19
2023-08-01T12:53:54.669Z,98917.91
2023-08-01T12:56:56.998Z,98907.59
2023-08-01T12:59:59.029Z,98902.13
2023-08-01T13:03:01.577Z,98907.84
2023-08-01T13:06:04.286Z,98900.53
2023-08-01T13:09:18.100Z,98895.84
2023-08-01T13:12:20.684Z,98899.38
2023-08-01T13:15:36.148Z,98908.31
2023-08-01T13:18:45.640Z,98910.59
2023-08-01T13:21:48.522Z,98922.13
2023-08-01T13:24:50.289Z,98930.16
2023-08-01T13:27:52.186Z,98956.19
2023-08-01T13:30:54.845Z,98972.47
2023-08-01T13:33:56.918Z,98985.00
2023-08-01T13:36:58.815Z,99000.28
2023-08-01T13:40:02.223Z,98999.84
2023-08-01T13:43:06.976Z,99011.34
2023-08-01T13:46:29.761Z,98999.28
2023-08-01T13:49:38.698Z,99011.75
2023-08-01T13:52:41.221Z,99000.13
2023-08-01T13:55:43.729Z,98990.13
2023-08-01T13:58:56.543Z,98978.94
2023-08-01T14:02:17.297Z,98972.41
2023-08-01T14:05:58.796Z,98947.81
2023-08-01T14:09:53.388Z,98954.09
2023-08-01T14:13:20.881Z,98967.81
2023-08-01T14:16:41.095Z,98976.88
2023-08-01T14:20:24.231Z,98977.94
2023-08-01T14:23:36.422Z,98979.91
2023-08-01T14:26:50.758Z,99017.59
2023-08-01T14:30:01.926Z,99005.66
2023-08-01T14:33:11.778Z,99009.13
2023-08-01T14:36:16.509Z,99013.50
2023-08-01T14:39:23.077Z,99014.50
2023-08-01T14:42:26.863Z,99022.47
2023-08-01T14:45:29.231Z,99011.16
2023-08-01T14:48:31.769Z,99018.88
2023-08-01T14:51:35.224Z,99021.19
2023-08-01T14:54:41.426Z,99013.63
2023-08-01T14:57:44.250Z,99005.38
2023-08-01T15:00:46.550Z,99018.44
2023-08-01T15:03:48.747Z,99019.13
2023-08-01T15:06:50.628Z,99010.94
2023-08-01T15:09:53.591Z,99020.19
2023-08-01T15:12:56.677Z,99007.19
2023-08-01T15:15:58.898Z,99016.25
2023-08-01T15:19:01.533Z,99011.63
2023-08-01T15:22:03.910Z,99010.69
2023-08-01T15:25:06.573Z,99018.75
2023-08-01T15:28:08.607Z,99010.66
2023-08-01T15:31:11.219Z,99018.63
2023-08-01T15:34:14.281Z,99020.53
2023-08-01T15:37:16.913Z,99011.78
2023-08-01T15:40:19.179Z,99019.34
2023-08-01T15:43:21.734Z,99024.84
2023-08-01T15:46:26.817Z,99020.66
2023-08-01T15:49:28.803Z,99031.28
2023-08-01T15:52:31.232Z,99019.91
2023-08-01T15:55:36.246Z,99030.56
2023-08-01T15:58:41.575Z,99021.19
2023-08-01T16:01:46.114Z,99017.50
2023-08-01T16:04:48.523Z,99022.09
2023-08-01T16:07:51.086Z,99042.84
2023-08-01T16:10:53.781Z,99032.00
2023-08-01T16:13:58.058Z,99025.28
2023-08-01T16:17:02.080Z,99024.78
2023-08-01T16:20:05.174Z,99028.97
2023-08-01T16:23:07.777Z,99024.38
2023-08-01T16:26:10.036Z,99011.41
2023-08-01T16:29:13.941Z,99022.88
2023-08-01T16:32:16.333Z,99020.16
2023-08-01T16:35:18.564Z,99018.09
2023-08-01T16:38:21.170Z,99004.19
2023-08-01T16:41:23.967Z,99004.91
2023-08-01T16:44:28.200Z,99009.31
2023-08-01T16:47:41.430Z,99013.28
2023-08-01T16:50:46.170Z,99008.25
2023-08-01T16:53:50.573Z,99010.94
2023-08-01T16:56:53.081Z,99013.25
2023-08-01T16:59:57.787Z,99025.31
2023-08-01T17:03:00.725Z,99027.75
2023-08-01T17:06:02.708Z,99027.69
2023-08-01T17:09:10.147Z,99028.16
2023-08-01T17:12:12.866Z,99036.38
2023-08-01T17:15:14.746Z,99036.03
2023-08-01T17:18:19.495Z,99038.41
2023-08-01T17:21:22.600Z,99047.06
2023-08-01T17:24:25.171Z,99042.72
2023-08-01T17:27:27.207Z,99047.00
2023-08-01T17:30:29.702Z,99048.09
2023-08-01T17:33:32.315Z,99049.56
2023-08-01T17:36:34.563Z,99054.50
2023-08-01T17:39:37.352Z,99053.56
2023-08-01T17:42:39.593Z,99054.63
2023-08-01T17:45:41.581Z,99051.50
2023-08-01T17:48:46.987Z,99056.25
2023-08-01T17:51:51.385Z,99060.47
2023-08-01T17:54:54.040Z,99061.88
2023-08-01T17:57:57.901Z,99060.59
2023-08-01T18:00:59.965Z,99064.50
2023-08-01T18:04:01.724Z,99079.22
2023-08-01T18:07:03.639Z,99085.38
2023-08-01T18:10:06.387Z,99092.81
2023-08-01T18:13:08.883Z,99089.63
2023-08-01T18:16:18.999Z,99105.09
2023-08-01T18:19:20.696Z,99106.09
2023-08-01T18:22:22.506Z,99116.09
2023-08-01T18:25:24.363Z,99120.13
2023-08-01T18:28:26.046Z,99128.34
2023-08-01T18:31:28.222Z,99117.50
2023-08-01T18:34:30.286Z,99127.13
2023-08-01T18:37:32.159Z,99130.22
2023-08-01T18:40:34.057Z,99136.81
2023-08-01T18:43:37.254Z,99142.88
2023-08-01T18:46:41.564Z,99138.34
2023-08-01T18:49:43.757Z,99149.28
2023-08-01T18:52:51.567Z,99153.63
2023-08-01T18:55:53.668Z,99157.47
2023-08-01T18:58:55.517Z,99167.00
2023-08-01T19:01:58.106Z,99163.25
2023-08-01T19:05:06.115Z,99167.44
2023-08-01T19:08:08.004Z,99184.06
2023-08-01T19:11:10.066Z,99190.94
2023-08-01T19:14:12.030Z,99189.13
2023-08-01T19:17:13.777Z,99177.50
2023-08-01T19:20:15.660Z,99179.09
2023-08-01T19:23:17.820Z,99186.59
2023-08-01T19:26:19.621Z,99188.16
2023-08-01T19:29:21.333Z,99194.91
2023-08-01T19:32:24.000Z,99200.88
2023-08-01T19:35:25.913Z,99190.44
2023-08-01T19:38:27.780Z,99204.78
2023-08-01T19:41:30.713Z,99204.16
2023-08-01T19:44:32.702Z,99211.03
2023-08-01T19:47:34.459Z,99204.63
2023-08-01T19:50:36.178Z,99203.25
2023-08-01T19:53:38.238Z,99204.69
2023-08-01T19:56:40.261Z,99195.47
2023-08-01T19:59:42.296Z,99194.66
2023-08-01T20:02:46.801Z,99203.91
2023-08-01T20:05:49.958Z,99197.09
2023-08-01T20:08:51.967Z,99201.75
2023-08-01T20:11:53.795Z,99200.28
2023-08-01T20:15:02.192Z,99208.28
2023-08-01T20:18:06.254Z,99206.84
2023-08-01T20:21:09.252Z,99224.34
2023-08-01T20:24:11.191Z,99221.97
2023-08-01T20:27:16.068Z,99217.81
2023-08-01T20:30:18.101Z,99218.81
2023-08-01T20:33:21.668Z,99226.59
2023-08-01T20:36:23.589Z,99222.13
2023-08-01T20:39:28.153Z,99227.16
2023-08-01T20:42:31.574Z,99234.38
2023-08-01T20:45:33.626Z,99229.28
2023-08-01T20:48:36.856Z,99243.75
2023-08-01T20:51:39.406Z,99246.84
2023-08-01T20:54:41.921Z,99248.78
2023-08-01T20:57:44.101Z,99248.47
2023-08-01T21:00:47.047Z,99243.97
2023-08-01T21:03:49.842Z,99247.56
2023-08-01T21:06:52.194Z,99254.94
2023-08-01T21:09:54.805Z,99252.78
2023-08-01T21:12:57.170Z,99248.47
2023-08-01T21:15:59.664Z,99250.06
2023-08-01T21:19:02.036Z,99239.34
2023-08-01T21:22:04.228Z,99241.31
2023-08-01T21:25:06.638Z,99248.53
2023-08-01T21:28:10.221Z,99248.75
2023-08-01T21:31:13.804Z,99245.91
2023-08-01T21:34:16.498Z,99252.13
2023-08-01T21:37:20.457Z,99253.31
2023-08-01T21:40:23.054Z,99254.75
2023-08-01T21:43:26.037Z,99250.56
2023-08-01T21:46:29.421Z,99240.69
2023-08-01T21:49:31.996Z,99241.31
2023-08-01T21:52:34.517Z,99240.94
2023-08-01T21:55:37.187Z,99237.34
2023-08-01T21:58:39.217Z,99237.78
2023-08-01T22:01:41.122Z,99240.03
2023-08-01T22:04:43.226Z,99250.81
2023-08-01T22:07:45.126Z,99247.03
2023-08-01T22:10:53.324Z,99250.25
2023-08-01T22:13:55.101Z,99240.28
2023-08-01T22:16:57.120Z,99236.16
2023-08-01T22:19:59.567Z,99236.97
2023-08-01T22:23:01.443Z,99235.38
2023-08-01T22:26:04.421Z,99243.78
2023-08-01T22:29:06.427Z,99243.56
2023-08-01T22:32:08.494Z,99247.03
2023-08-01T22:35:11.877Z,99237.34
2023-08-01T22:38:14.050Z,99244.38
2023-08-01T22:41:23.346Z,99239.72
2023-08-01T22:44:26.858Z,99237.09
2023-08-01T22:47:30.194Z,99226.44
2023-08-01T22:50:34.300Z,99226.94
2023-08-01T22:53:38.419Z,99230.34
2023-08-01T22:56:42.243Z,99237.03
2023-08-01T22:59:45.528Z,99236.50
2023-08-01T23:02:50.624Z,99233.03
2023-08-01T23:05:53.478Z,99239.25
2023-08-01T23:09:01.247Z,99234.03
2023-08-01T23:12:03.862Z,99240.59
2023-08-01T23:15:07.916Z,99237.69
2023-08-01T23:18:10.249Z,99233.81
2023-08-01T23:21:12.270Z,99234.03
2023-08-01T23:24:14.480Z,99222.75
2023-08-01T23:27:16.682Z,99228.25
2023-08-01T23:30:19.009Z,99226.78
2023-08-01T23:33:21.332Z,99231.13
2023-08-01T23:36:23.517Z,99222.28
2023-08-01T23:39:27.221Z,99225.53
2023-08-01T23:42:32.554Z,99232.34
2023-08-01T23:45:34.883Z,99231.91
2023-08-01T23:48:37.002Z,99237.56
2023-08-01T23:51:39.498Z,99230.28
2023-08-01T23:54:42.205Z,99228.81
2023-08-01T23:57:44.423Z,99233.06
